Time;durP1;ratioP1;P1;durP2;ratioP2;P2;SDS_P1;SDS_P2;PMS_P1;PMS_P2;Temp;Humidity;BMP_temperature;BMP_pressure;BME280_temperature;BME280_humidity;BME280_pressure;Samples;Min_cycle;Max_cycle;Signal;HPM_P1;HPM_P2
2023/12/26 00:01:15;;;;;;;1.38;0.88;;;23.10;58.20;;;;;;4977059;28;86887;-60
2023/12/26 00:03:40;;;;;;;2.90;1.13;;;23.00;58.00;;;;;;4973398;28;87573;-60
2023/12/26 00:06:06;;;;;;;2.83;0.98;;;23.00;58.00;;;;;;4980833;28;88362;-59
2023/12/26 00:08:32;;;;;;;1.17;1.02;;;23.00;58.10;;;;;;4974668;28;87794;-60
2023/12/26 00:10:58;;;;;;;1.23;0.70;;;23.00;57.90;;;;;;4973480;28;86976;-60
2023/12/26 00:13:24;;;;;;;1.00;0.80;;;22.90;58.00;;;;;;4993022;28;89664;-60
2023/12/26 00:15:51;;;;;;;1.83;0.82;;;23.00;58.10;;;;;;4973629;28;89014;-59
2023/12/26 00:18:18;;;;;;;1.75;0.90;;;22.90;58.00;;;;;;4977330;28;90501;-60
2023/12/26 00:20:44;;;;;;;1.17;0.88;;;22.90;58.00;;;;;;4980153;28;88485;-60
2023/12/26 00:23:10;;;;;;;0.90;0.70;;;22.90;58.00;;;;;;4968390;28;88488;-60
2023/12/26 00:25:37;;;;;;;1.27;0.90;;;22.80;58.10;;;;;;4974639;28;87735;-60
2023/12/26 00:28:04;;;;;;;1.35;0.82;;;22.80;58.10;;;;;;4970155;28;89245;-60
2023/12/26 00:30:30;;;;;;;1.00;0.60;;;22.80;58.00;;;;;;4973140;28;87616;-60
2023/12/26 00:32:56;;;;;;;1.02;0.70;;;22.80;58.10;;;;;;4964654;28;87168;-59
2023/12/26 00:35:22;;;;;;;1.00;0.60;;;22.80;58.20;;;;;;4953675;28;87203;-60
2023/12/26 00:37:47;;;;;;;0.75;0.70;;;22.80;58.30;;;;;;4951766;28;87812;-60
2023/12/26 00:40:13;;;;;;;1.30;0.82;;;22.70;58.20;;;;;;4961615;28;89080;-60
2023/12/26 00:42:43;;;;;;;1.15;0.73;;;22.70;58.20;;;;;;4971350;28;86922;-60
2023/12/26 00:45:09;;;;;;;1.13;0.65;;;22.70;58.20;;;;;;4986499;28;89358;-60
2023/12/26 00:47:36;;;;;;;0.90;0.80;;;22.70;58.20;;;;;;4968862;28;87647;-58
2023/12/26 00:50:03;;;;;;;1.55;0.98;;;22.60;58.10;;;;;;4991004;28;87621;-60
2023/12/26 00:52:31;;;;;;;0.55;0.55;;;22.60;58.20;;;;;;4985780;28;88739;-60
2023/12/26 00:54:57;;;;;;;1.88;0.70;;;22.60;58.10;;;;;;4972536;28;89548;-60
2023/12/26 00:57:24;;;;;;;1.38;0.77;;;22.60;58.00;;;;;;4977271;28;88510;-60
2023/12/26 00:59:50;;;;;;;1.27;0.75;;;22.60;58.10;;;;;;4972672;28;87980;-60
2023/12/26 01:02:16;;;;;;;0.93;0.70;;;22.60;58.20;;;;;;4973718;28;87609;-60
2023/12/26 01:04:42;;;;;;;1.95;1.02;;;22.60;57.90;;;;;;4974261;28;88247;-60
2023/12/26 01:07:07;;;;;;;0.80;0.55;;;22.50;58.00;;;;;;4966241;28;90549;-60
2023/12/26 01:09:34;;;;;;;1.58;0.70;;;22.50;58.10;;;;;;4972987;28;87333;-60
2023/12/26 01:11:59;;;;;;;1.77;0.95;;;22.50;58.20;;;;;;4971681;28;88029;-60
2023/12/26 01:14:25;;;;;;;0.70;0.60;;;22.50;58.20;;;;;;4987108;28;87908;-60
2023/12/26 01:16:51;;;;;;;2.33;1.00;;;22.40;58.00;;;;;;4973128;28;88664;-60
2023/12/26 01:19:17;;;;;;;1.70;0.80;;;22.50;58.30;;;;;;4973150;28;87223;-60
2023/12/26 01:21:43;;;;;;;1.45;0.73;;;22.50;58.10;;;;;;4974784;28;87058;-60
2023/12/26 01:24:08;;;;;;;1.17;0.93;;;22.40;58.00;;;;;;4971133;28;88013;-60
2023/12/26 01:26:34;;;;;;;1.58;0.80;;;22.40;58.00;;;;;;4974933;28;87602;-60
2023/12/26 01:29:01;;;;;;;1.77;0.70;;;22.40;58.10;;;;;;4976647;28;88384;-59
2023/12/26 01:31:27;;;;;;;0.90;0.65;;;22.40;58.00;;;;;;4976604;28;88136;-60
2023/12/26 01:33:53;;;;;;;1.23;0.80;;;22.40;58.00;;;;;;4976837;28;88309;-59
2023/12/26 01:36:19;;;;;;;0.68;0.40;;;22.40;58.10;;;;;;4978757;28;87912;-60
2023/12/26 01:38:45;;;;;;;1.40;0.80;;;22.40;58.10;;;;;;4975730;28;87076;-60
2023/12/26 01:41:11;;;;;;;1.02;0.75;;;22.30;58.20;;;;;;4980025;28;87830;-59
2023/12/26 01:43:38;;;;;;;0.98;0.70;;;22.30;57.90;;;;;;4978413;28;88091;-60
2023/12/26 01:46:04;;;;;;;0.65;0.65;;;22.30;58.20;;;;;;4990406;28;89448;-59
2023/12/26 01:48:30;;;;;;;2.83;1.10;;;22.20;58.10;;;;;;4975097;28;87685;-59
2023/12/26 01:51:00;;;;;;;0.80;0.70;;;22.30;58.10;;;;;;4976178;28;87479;-60
2023/12/26 01:53:25;;;;;;;2.08;1.00;;;22.30;58.10;;;;;;4978241;28;89214;-60
2023/12/26 01:55:52;;;;;;;0.80;0.80;;;22.20;58.00;;;;;;4978381;28;88709;-60
2023/12/26 01:58:18;;;;;;;1.98;0.95;;;22.20;58.00;;;;;;4977188;28;87463;-60
2023/12/26 02:00:44;;;;;;;1.88;0.77;;;22.20;58.20;;;;;;4981640;28;87613;-60
2023/12/26 02:03:09;;;;;;;0.63;0.52;;;22.20;58.00;;;;;;4971253;28;88066;-60
2023/12/26 02:05:35;;;;;;;1.20;0.70;;;22.20;58.10;;;;;;4979125;28;88451;-60
2023/12/26 02:08:01;;;;;;;1.73;0.80;;;22.20;58.00;;;;;;4972978;28;87398;-60
2023/12/26 02:10:27;;;;;;;0.77;0.68;;;22.20;58.10;;;;;;4972417;28;87024;-60
2023/12/26 02:12:52;;;;;;;0.80;0.70;;;22.20;58.20;;;;;;4972402;28;88028;-59
2023/12/26 02:15:18;;;;;;;1.80;0.70;;;22.20;58.20;;;;;;4976881;28;87479;-60
2023/12/26 02:17:44;;;;;;;1.48;0.80;;;22.10;58.00;;;;;;4975369;28;88074;-60
2023/12/26 02:20:10;;;;;;;1.13;0.70;;;22.10;58.00;;;;;;4977850;28;87723;-59
2023/12/26 02:22:36;;;;;;;0.73;0.60;;;22.10;58.10;;;;;;4970923;28;89355;-60
2023/12/26 02:25:01;;;;;;;1.45;0.60;;;22.10;57.90;;;;;;4971352;28;87639;-60
2023/12/26 02:27:34;;;;;;;1.05;0.73;;;22.10;58.60;;;;;;4979311;28;86863;-60
2023/12/26 02:30:01;;;;;;;2.05;0.75;;;22.10;58.10;;;;;;4974450;28;87848;-60
2023/12/26 02:32:28;;;;;;;0.90;0.70;;;22.10;58.10;;;;;;4977669;28;87585;-59
2023/12/26 02:34:55;;;;;;;1.15;0.77;;;22.10;58.00;;;;;;4972754;28;86497;-60
2023/12/26 02:37:24;;;;;;;1.00;0.50;;;22.10;58.20;;;;;;4977853;28;87793;-59
2023/12/26 02:39:51;;;;;;;;;;;22.10;58.00;;;;;;4976027;28;88049;-59
2023/12/26 02:42:20;;;;;;;1.10;0.73;;;22.00;58.00;;;;;;4979992;28;89207;-60
2023/12/26 02:44:46;;;;;;;0.75;0.50;;;22.00;58.10;;;;;;4976830;28;88665;-55
2023/12/26 02:47:13;;;;;;;1.70;0.80;;;22.00;58.10;;;;;;4974030;28;87266;-60
2023/12/26 02:49:40;;;;;;;1.35;0.88;;;22.00;58.10;;;;;;4973161;28;88460;-60
2023/12/26 02:52:06;;;;;;;1.25;0.80;;;22.00;58.10;;;;;;4974894;28;88235;-60
2023/12/26 02:54:34;;;;;;;1.33;0.85;;;22.00;58.10;;;;;;4976770;28;88431;-60
2023/12/26 02:57:00;;;;;;;0.65;0.65;;;21.90;58.10;;;;;;4973936;28;87345;-60
2023/12/26 02:59:26;;;;;;;1.05;0.75;;;21.90;58.10;;;;;;4978370;28;87169;-60
2023/12/26 03:01:52;;;;;;;0.80;0.60;;;21.90;58.20;;;;;;4973559;28;87470;-60
2023/12/26 03:04:17;;;;;;;1.83;0.73;;;21.90;58.30;;;;;;4991052;28;88785;-59
2023/12/26 03:06:43;;;;;;;0.60;0.57;;;21.90;58.20;;;;;;4978970;28;89159;-60
2023/12/26 03:09:09;;;;;;;0.75;0.68;;;21.90;58.20;;;;;;4971183;28;88828;-60
2023/12/26 03:11:35;;;;;;;1.30;0.80;;;21.90;58.10;;;;;;4973620;28;88282;-60
2023/12/26 03:14:01;;;;;;;1.17;0.65;;;21.90;58.10;;;;;;4971402;28;89377;-60
2023/12/26 03:16:27;;;;;;;1.20;0.50;;;21.90;58.10;;;;;;4974985;28;88498;-60
2023/12/26 03:18:53;;;;;;;1.58;0.90;;;21.90;58.20;;;;;;4977332;28;87466;-60
2023/12/26 03:21:20;;;;;;;1.20;0.70;;;21.90;58.10;;;;;;4973128;28;89191;-60
2023/12/26 03:23:46;;;;;;;1.17;0.60;;;21.90;58.10;;;;;;4974307;28;87906;-60
2023/12/26 03:26:12;;;;;;;0.63;0.63;;;21.90;58.10;;;;;;4974752;28;87416;-60
2023/12/26 03:28:38;;;;;;;1.17;0.70;;;21.80;58.10;;;;;;4978199;28;87385;-60
2023/12/26 03:31:05;;;;;;;0.52;0.50;;;21.80;58.10;;;;;;4972333;28;89258;-60
2023/12/26 03:33:32;;;;;;;2.45;0.82;;;21.80;58.10;;;;;;4989408;28;88374;-60
2023/12/26 03:36:01;;;;;;;0.85;0.57;;;21.80;58.10;;;;;;4978776;28;87213;-60
2023/12/26 03:38:26;;;;;;;0.90;0.73;;;21.80;58.10;;;;;;4970790;28;88051;-59
2023/12/26 03:40:52;;;;;;;0.50;0.45;;;21.80;58.20;;;;;;4972697;28;88328;-60
2023/12/26 03:43:18;;;;;;;0.77;0.77;;;21.80;58.10;;;;;;4977190;28;87536;-60
2023/12/26 03:45:45;;;;;;;1.20;0.70;;;21.80;58.00;;;;;;4975059;28;87990;-60
2023/12/26 03:48:11;;;;;;;0.98;0.70;;;21.80;58.00;;;;;;4977531;28;87107;-60
2023/12/26 03:50:37;;;;;;;0.93;0.70;;;21.80;58.00;;;;;;4978216;28;88663;-59
2023/12/26 03:53:03;;;;;;;1.58;0.80;;;21.80;58.10;;;;;;4973988;28;87747;-60
2023/12/26 03:55:29;;;;;;;0.93;0.50;;;21.80;58.20;;;;;;4975658;28;88343;-60
2023/12/26 03:57:55;;;;;;;0.80;0.45;;;21.70;58.10;;;;;;4973396;28;87639;-60
2023/12/26 04:00:22;;;;;;;0.57;0.50;;;21.70;58.00;;;;;;4974133;28;91868;-60
2023/12/26 04:02:48;;;;;;;1.20;0.60;;;21.70;58.10;;;;;;4972979;28;88735;-60
2023/12/26 04:05:36;;;;;;;0.82;0.60;;;21.70;58.00;;;;;;4972432;28;87381;-60
2023/12/26 04:08:04;;;;;;;1.02;0.60;;;21.70;58.00;;;;;;4957959;28;87920;-60
2023/12/26 04:10:29;;;;;;;0.95;0.60;;;21.70;58.10;;;;;;4969149;28;87280;-60
2023/12/26 04:12:56;;;;;;;1.00;0.73;;;21.70;58.20;;;;;;4973766;28;88532;-60
2023/12/26 04:15:22;;;;;;;1.48;0.70;;;21.70;58.20;;;;;;4973553;28;87785;-60
2023/12/26 04:17:47;;;;;;;0.85;0.65;;;21.70;58.00;;;;;;4976169;28;87443;-60
2023/12/26 04:20:13;;;;;;;1.35;0.68;;;21.70;58.00;;;;;;4974152;28;88687;-60
2023/12/26 04:22:39;;;;;;;1.02;0.65;;;21.70;58.00;;;;;;4988938;28;89631;-60
2023/12/26 04:25:07;;;;;;;0.95;0.77;;;21.60;57.90;;;;;;4973462;28;87446;-60
2023/12/26 04:27:33;;;;;;;1.67;0.52;;;21.60;57.80;;;;;;4975910;28;87613;-60
2023/12/26 04:30:01;;;;;;;0.40;0.40;;;21.60;57.70;;;;;;4981700;28;88520;-60
2023/12/26 04:32:26;;;;;;;0.93;0.60;;;21.60;57.90;;;;;;4973471;28;88370;-60
2023/12/26 04:34:52;;;;;;;0.57;0.57;;;21.60;57.90;;;;;;4976810;28;87606;-60
2023/12/26 04:37:18;;;;;;;0.90;0.63;;;21.60;57.90;;;;;;4975095;28;86953;-59
2023/12/26 04:39:44;;;;;;;0.73;0.50;;;21.60;57.90;;;;;;4975436;28;88565;-60
2023/12/26 04:42:10;;;;;;;0.50;0.40;;;21.60;57.90;;;;;;4974490;28;87921;-60
2023/12/26 04:44:36;;;;;;;0.70;0.50;;;21.60;57.80;;;;;;4984188;28;88095;-60
2023/12/26 04:47:02;;;;;;;0.82;0.50;;;21.60;57.90;;;;;;4970399;28;88021;-60
2023/12/26 04:49:28;;;;;;;0.98;0.52;;;21.60;57.90;;;;;;4972725;28;87538;-60
2023/12/26 04:51:54;;;;;;;0.82;0.70;;;21.60;58.00;;;;;;4975015;28;87658;-59
2023/12/26 04:54:20;;;;;;;1.02;0.63;;;21.60;57.90;;;;;;4978870;28;87572;-60
2023/12/26 04:56:46;;;;;;;0.82;0.68;;;21.60;58.10;;;;;;4978600;28;87470;-60
2023/12/26 04:59:11;;;;;;;0.60;0.50;;;21.60;58.00;;;;;;4977451;28;88226;-60
2023/12/26 05:04:59;;;;;;;0.68;0.52;;;21.50;58.00;;;;;;4972655;28;87940;-60
2023/12/26 05:07:24;;;;;;;0.95;0.57;;;21.50;57.90;;;;;;4977795;28;87400;-60
2023/12/26 05:09:51;;;;;;;1.00;0.52;;;21.50;58.10;;;;;;4978797;28;88040;-59
2023/12/26 05:12:17;;;;;;;1.05;0.77;;;21.50;58.10;;;;;;4978837;28;89489;-60
2023/12/26 05:14:43;;;;;;;0.75;0.50;;;21.50;58.00;;;;;;4978122;28;88300;-60
2023/12/26 05:17:08;;;;;;;0.95;0.50;;;21.50;57.90;;;;;;4976260;28;87436;-60
2023/12/26 05:19:34;;;;;;;0.88;0.60;;;21.50;57.90;;;;;;4975563;28;87713;-60
2023/12/26 05:22:00;;;;;;;0.90;0.60;;;21.50;57.90;;;;;;4977558;28;87755;-60
2023/12/26 05:24:27;;;;;;;0.52;0.50;;;21.50;57.90;;;;;;4978908;28;88156;-60
2023/12/26 05:26:53;;;;;;;0.98;0.63;;;21.50;58.10;;;;;;4974994;28;86990;-60
2023/12/26 05:29:20;;;;;;;0.88;0.70;;;21.50;58.10;;;;;;4987041;28;88571;-60
2023/12/26 05:31:47;;;;;;;1.55;0.52;;;21.50;58.30;;;;;;4976588;28;88504;-60
2023/12/26 05:34:13;;;;;;;0.80;0.55;;;21.50;58.00;;;;;;4977151;28;88961;-60
2023/12/26 05:36:39;;;;;;;0.82;0.57;;;21.40;57.80;;;;;;4972776;28;87511;-60
2023/12/26 05:39:06;;;;;;;1.08;0.57;;;21.50;58.10;;;;;;4974738;28;88237;-60
2023/12/26 05:41:32;;;;;;;0.60;0.50;;;21.40;58.00;;;;;;4981021;28;87993;-60
2023/12/26 05:43:59;;;;;;;0.45;0.45;;;21.40;58.00;;;;;;4976650;28;87467;-60
2023/12/26 05:46:31;;;;;;;0.52;0.47;;;21.40;58.00;;;;;;4975387;28;88063;-60
2023/12/26 05:48:58;;;;;;;0.73;0.57;;;21.40;57.90;;;;;;4977427;28;88620;-59
2023/12/26 05:51:25;;;;;;;0.70;0.50;;;21.40;57.90;;;;;;4974961;28;91073;-60
2023/12/26 05:53:51;;;;;;;0.50;0.47;;;21.40;57.90;;;;;;4974697;28;86861;-60
2023/12/26 05:56:20;;;;;;;1.25;0.60;;;21.40;57.90;;;;;;4975936;28;86927;-60
2023/12/26 05:58:46;;;;;;;0.77;0.50;;;21.40;58.00;;;;;;4979691;28;87837;-59
2023/12/26 06:01:12;;;;;;;1.13;0.90;;;21.40;58.00;;;;;;4973497;28;91455;-60
2023/12/26 06:03:38;;;;;;;0.40;0.40;;;21.40;58.00;;;;;;4991895;28;87584;-60
2023/12/26 06:06:09;;;;;;;0.55;0.45;;;21.40;58.00;;;;;;4973568;28;87089;-60
2023/12/26 06:08:35;;;;;;;0.93;0.50;;;21.40;57.90;;;;;;4971684;28;87699;-60
2023/12/26 06:11:00;;;;;;;2.22;0.75;;;21.30;57.80;;;;;;4977985;28;87630;-60
2023/12/26 06:13:27;;;;;;;0.57;0.50;;;21.30;58.00;;;;;;4976049;28;87485;-60
2023/12/26 06:15:53;;;;;;;0.40;0.40;;;21.30;58.00;;;;;;4981468;28;86858;-59
2023/12/26 06:18:19;;;;;;;0.47;0.35;;;21.30;57.90;;;;;;4992798;28;89325;-60
2023/12/26 06:20:44;;;;;;;0.63;0.50;;;21.30;57.90;;;;;;4977609;28;87447;-60
2023/12/26 06:23:11;;;;;;;0.93;0.73;;;21.40;57.80;;;;;;4968524;28;89211;-60
2023/12/26 06:25:37;;;;;;;0.50;0.40;;;21.30;58.00;;;;;;4985874;28;89492;-60
2023/12/26 06:28:04;;;;;;;0.75;0.50;;;21.30;57.70;;;;;;4976775;28;88604;-60
2023/12/26 06:30:31;;;;;;;0.75;0.50;;;21.30;57.80;;;;;;4979548;28;89358;-60
2023/12/26 06:32:57;;;;;;;1.60;0.50;;;21.30;57.80;;;;;;4976141;28;87461;-60
2023/12/26 06:35:22;;;;;;;0.82;0.60;;;21.30;57.90;;;;;;4972383;28;87724;-60
2023/12/26 06:37:48;;;;;;;0.80;0.50;;;21.30;58.00;;;;;;4978603;28;88914;-60
2023/12/26 06:40:14;;;;;;;0.68;0.60;;;21.30;58.00;;;;;;4977158;28;90437;-60
2023/12/26 06:42:39;;;;;;;0.98;0.60;;;21.30;58.00;;;;;;4978760;28;87249;-60
2023/12/26 06:45:05;;;;;;;0.70;0.40;;;21.30;58.00;;;;;;4974065;28;87243;-60
2023/12/26 06:47:32;;;;;;;2.25;0.82;;;21.20;57.90;;;;;;4974679;28;88685;-60
2023/12/26 06:49:58;;;;;;;1.48;0.60;;;21.20;57.00;;;;;;4975909;28;88476;-60
2023/12/26 06:52:24;;;;;;;0.80;0.70;;;21.20;56.60;;;;;;4973468;28;88259;-60
2023/12/26 06:54:50;;;;;;;3.17;0.80;;;21.20;56.90;;;;;;4976232;28;87610;-60
2023/12/26 06:57:15;;;;;;;1.30;0.55;;;21.20;57.00;;;;;;4976604;28;92623;-59
2023/12/26 06:59:48;;;;;;;1.10;0.52;;;21.20;56.90;;;;;;4980943;28;87946;-60
2023/12/26 07:02:14;;;;;;;1.13;0.57;;;21.20;56.90;;;;;;4970851;28;87450;-60
2023/12/26 07:04:44;;;;;;;1.48;0.70;;;21.20;57.00;;;;;;4988697;28;86669;-60
2023/12/26 07:07:10;;;;;;;0.70;0.30;;;21.20;57.00;;;;;;4988543;28;88640;-60
2023/12/26 07:09:37;;;;;;;1.08;0.68;;;21.20;56.90;;;;;;4973484;28;88538;-60
2023/12/26 07:12:03;;;;;;;0.85;0.47;;;21.20;57.00;;;;;;4972838;28;88168;-60
2023/12/26 07:14:29;;;;;;;9.27;0.88;;;21.20;57.00;;;;;;4956467;28;88148;-60
2023/12/26 07:16:56;;;;;;;0.80;0.50;;;21.20;57.00;;;;;;4956558;28;87813;-59
2023/12/26 07:19:22;;;;;;;2.03;0.70;;;21.20;56.90;;;;;;4962268;28;87694;-60
2023/12/26 07:21:47;;;;;;;1.35;0.60;;;21.20;56.80;;;;;;4974476;28;87647;-60
2023/12/26 07:24:14;;;;;;;1.92;0.63;;;21.20;56.90;;;;;;4974923;28;88475;-60
2023/12/26 07:26:41;;;;;;;0.82;0.68;;;21.10;56.90;;;;;;4975149;28;87624;-60
2023/12/26 07:29:07;;;;;;;1.75;0.60;;;21.10;56.70;;;;;;4984969;28;91246;-60
2023/12/26 07:31:33;;;;;;;0.75;0.70;;;21.10;56.70;;;;;;4974300;28;87512;-60
2023/12/26 07:34:02;;;;;;;2.55;0.43;;;21.10;56.60;;;;;;4970959;28;88275;-60
2023/12/26 07:36:28;;;;;;;1.58;0.57;;;21.20;57.00;;;;;;4973680;28;89845;-60
2023/12/26 07:38:53;;;;;;;0.70;0.50;;;21.10;56.90;;;;;;4975875;28;88827;-60
2023/12/26 07:41:22;;;;;;;2.13;1.00;;;21.10;57.20;;;;;;4976796;28;88605;-60
2023/12/26 07:43:48;;;;;;;1.58;0.70;;;21.10;57.00;;;;;;4990080;28;88363;-60
2023/12/26 07:46:13;;;;;;;1.23;0.68;;;21.10;57.30;;;;;;4971271;28;88128;-60
2023/12/26 07:48:39;;;;;;;2.42;0.70;;;21.10;57.50;;;;;;4977209;28;89018;-58
2023/12/26 07:51:08;;;;;;;2.83;0.85;;;21.10;57.20;;;;;;4975253;28;87273;-59
2023/12/26 07:53:35;;;;;;;1.10;0.60;;;21.20;57.10;;;;;;4974504;28;86621;-60
2023/12/26 07:56:01;;;;;;;2.53;1.10;;;21.20;57.00;;;;;;4974226;28;88770;-60
2023/12/26 07:58:28;;;;;;;1.85;0.80;;;21.20;56.80;;;;;;4974276;28;89222;-61
2023/12/26 08:00:54;;;;;;;3.03;0.70;;;21.30;57.20;;;;;;4974704;28;88454;-61
2023/12/26 08:03:20;;;;;;;1.98;0.93;;;21.30;57.60;;;;;;4978449;28;87616;-63
2023/12/26 08:05:47;;;;;;;1.30;0.80;;;21.30;57.10;;;;;;4974193;28;89579;-61
2023/12/26 08:08:13;;;;;;;1.70;0.82;;;21.30;57.50;;;;;;4968602;28;89072;-61
2023/12/26 08:10:41;;;;;;;2.88;0.90;;;21.30;57.90;;;;;;4976810;28;87236;-61
2023/12/26 08:13:07;;;;;;;2.35;1.40;;;21.40;58.40;;;;;;4971314;28;87916;-60
2023/12/26 08:15:33;;;;;;;1.67;0.80;;;21.50;58.60;;;;;;4973199;28;87818;-60
2023/12/26 08:17:59;;;;;;;1.45;0.73;;;21.50;58.60;;;;;;4974551;28;87477;-61
2023/12/26 08:20:24;;;;;;;1.77;0.98;;;21.70;58.60;;;;;;4972097;28;88148;-61
2023/12/26 08:22:50;;;;;;;1.52;0.70;;;21.70;58.40;;;;;;4971556;28;88698;-60
2023/12/26 08:25:16;;;;;;;5.38;1.00;;;21.80;58.40;;;;;;4973039;28;89731;-60
2023/12/26 08:27:43;;;;;;;2.53;0.80;;;21.90;58.00;;;;;;4976400;28;88287;-61
2023/12/26 08:30:09;;;;;;;3.03;1.05;;;21.90;57.70;;;;;;4977454;28;88677;-60
2023/12/26 08:32:36;;;;;;;2.85;0.65;;;22.00;57.50;;;;;;4972296;28;87296;-60
2023/12/26 08:35:02;;;;;;;1.00;0.60;;;22.10;57.70;;;;;;4971412;28;88327;-60
2023/12/26 08:37:27;;;;;;;1.63;0.80;;;22.10;57.80;;;;;;4993541;28;89293;-59
2023/12/26 08:39:53;;;;;;;1.10;0.60;;;22.10;57.40;;;;;;4978758;28;87432;-59
2023/12/26 08:42:19;;;;;;;2.08;0.85;;;22.20;57.60;;;;;;4978689;28;87031;-60
2023/12/26 08:44:45;;;;;;;1.92;0.75;;;22.20;57.50;;;;;;4995676;28;88148;-60
2023/12/26 08:47:11;;;;;;;2.10;0.70;;;22.20;57.50;;;;;;4980173;28;87870;-60
2023/12/26 08:49:37;;;;;;;1.67;0.90;;;22.30;57.60;;;;;;4979630;28;88487;-60
2023/12/26 08:52:03;;;;;;;1.17;0.70;;;22.30;57.30;;;;;;4975851;28;87698;-59
2023/12/26 08:54:31;;;;;;;2.97;0.85;;;22.30;57.40;;;;;;4991417;28;88715;-59
2023/12/26 08:56:56;;;;;;;21.70;5.13;;;22.40;57.10;;;;;;4976537;28;89029;-59
2023/12/26 08:59:22;;;;;;;26.98;5.75;;;22.40;57.10;;;;;;4978848;28;87513;-59
2023/12/26 09:01:49;;;;;;;34.05;7.35;;;22.40;56.90;;;;;;4973698;28;88039;-60
2023/12/26 09:04:15;;;;;;;25.98;6.75;;;22.40;56.90;;;;;;4970977;28;87733;-59
2023/12/26 09:06:41;;;;;;;30.33;8.10;;;22.50;57.30;;;;;;4973871;28;88561;-59
2023/12/26 09:09:26;;;;;;;24.38;7.35;;;22.50;57.20;;;;;;4971651;28;88041;-59
2023/12/26 09:11:53;;;;;;;26.73;7.80;;;22.50;57.10;;;;;;4968271;28;87088;-59
2023/12/26 09:14:19;;;;;;;36.30;8.50;;;22.60;57.30;;;;;;4968382;28;89047;-58
2023/12/26 09:16:45;;;;;;;45.20;8.80;;;22.60;57.00;;;;;;4968863;28;90339;-60
2023/12/26 09:19:12;;;;;;;27.85;6.93;;;22.60;57.30;;;;;;4970917;28;88008;-60
2023/12/26 09:21:37;;;;;;;24.60;6.68;;;22.60;57.20;;;;;;4966486;28;89788;-59
2023/12/26 09:24:05;;;;;;;24.23;6.20;;;22.70;56.60;;;;;;4970875;28;87392;-59
2023/12/26 09:26:31;;;;;;;22.70;6.50;;;22.70;56.40;;;;;;4988502;28;87869;-60
2023/12/26 09:28:56;;;;;;;22.67;5.70;;;22.80;56.60;;;;;;4970114;28;87339;-60
2023/12/26 09:31:23;;;;;;;34.00;7.78;;;22.80;57.00;;;;;;4970221;28;87942;-60
2023/12/26 09:33:49;;;;;;;18.40;6.07;;;22.80;56.60;;;;;;4977770;28;87417;-58
2023/12/26 09:36:16;;;;;;;20.10;6.30;;;22.90;57.00;;;;;;4976093;28;88482;-61
2023/12/26 09:38:42;;;;;;;22.15;4.97;;;22.90;57.30;;;;;;4975094;28;88637;-60
2023/12/26 09:41:12;;;;;;;18.67;5.47;;;22.90;57.30;;;;;;4981560;28;88528;-60
2023/12/26 09:43:38;;;;;;;24.88;5.78;;;23.00;57.30;;;;;;4973795;28;87730;-60
2023/12/26 09:46:04;;;;;;;27.70;7.57;;;23.00;57.40;;;;;;4973562;28;88114;-60
2023/12/26 09:48:33;;;;;;;17.08;4.95;;;23.00;57.00;;;;;;5008150;28;87477;-60
2023/12/26 09:51:06;;;;;;;21.00;6.07;;;23.00;57.60;;;;;;4974417;28;87563;-60
2023/12/26 09:53:34;;;;;;;20.02;6.18;;;23.00;58.00;;;;;;4978441;28;91169;-59
2023/12/26 09:56:01;;;;;;;17.98;6.18;;;23.00;57.80;;;;;;4978694;28;87924;-60
2023/12/26 09:58:28;;;;;;;22.85;5.95;;;23.10;57.60;;;;;;4979161;28;88050;-59
2023/12/26 10:00:55;;;;;;;21.27;5.90;;;23.10;57.60;;;;;;4993063;28;87607;-61
2023/12/26 10:03:23;;;;;;;16.55;5.93;;;23.10;57.40;;;;;;4974694;28;88803;-60
2023/12/26 10:05:53;;;;;;;11.32;4.10;;;23.10;57.20;;;;;;4975183;28;87983;-60
2023/12/26 10:08:20;;;;;;;20.67;4.80;;;23.10;56.30;;;;;;4970612;28;87307;-60
2023/12/26 10:10:46;;;;;;;15.07;3.55;;;23.10;55.30;;;;;;4977445;28;87299;-60
2023/12/26 10:13:13;;;;;;;12.00;3.85;;;23.10;55.10;;;;;;4978086;28;88104;-59
2023/12/26 10:15:41;;;;;;;17.35;4.72;;;23.10;54.40;;;;;;4972649;28;88190;-60
2023/12/26 10:18:10;;;;;;;8.57;3.33;;;23.10;54.30;;;;;;4991324;28;87536;-62
2023/12/26 10:20:36;;;;;;;14.85;4.70;;;23.10;54.40;;;;;;4975527;28;89854;-60
2023/12/26 10:23:05;;;;;;;11.50;4.15;;;23.10;53.90;;;;;;4981043;28;87489;-60
2023/12/26 10:25:31;;;;;;;11.93;2.88;;;23.10;53.30;;;;;;4978811;28;88178;-60
2023/12/26 10:27:58;;;;;;;9.27;3.10;;;23.10;53.10;;;;;;4980214;28;88008;-60
2023/12/26 10:30:28;;;;;;;12.75;4.28;;;23.10;53.50;;;;;;4977958;28;87538;-60
2023/12/26 10:33:01;;;;;;;8.93;3.35;;;23.10;53.50;;;;;;4971422;28;89618;-60
2023/12/26 10:35:27;;;;;;;14.90;5.03;;;23.10;53.40;;;;;;4971473;28;88363;-61
2023/12/26 10:37:54;;;;;;;10.77;3.10;;;23.10;53.30;;;;;;4978207;28;87505;-63
2023/12/26 10:40:20;;;;;;;8.57;3.47;;;23.10;53.20;;;;;;4974656;28;87479;-62
2023/12/26 10:42:49;;;;;;;11.60;3.05;;;23.10;53.10;;;;;;4974984;28;89099;-60
2023/12/26 10:45:17;;;;;;;12.40;2.83;;;23.10;53.40;;;;;;4976412;28;87549;-60
2023/12/26 10:47:44;;;;;;;15.43;3.28;;;23.10;53.20;;;;;;4973497;28;87190;-60
2023/12/26 10:50:12;;;;;;;7.80;2.83;;;23.10;53.30;;;;;;4975477;28;87265;-62
2023/12/26 10:52:41;;;;;;;14.93;3.70;;;23.10;53.30;;;;;;4974240;28;89941;-60
2023/12/26 10:55:08;;;;;;;8.65;3.20;;;23.10;53.00;;;;;;4974687;28;88441;-60
2023/12/26 10:57:36;;;;;;;12.63;3.58;;;23.10;53.00;;;;;;4976611;28;87276;-62
2023/12/26 11:00:03;;;;;;;6.47;2.35;;;23.10;52.90;;;;;;4970866;28;88792;-61
2023/12/26 11:02:28;;;;;;;6.68;2.38;;;23.10;53.10;;;;;;4991205;28;89142;-60
2023/12/26 11:04:54;;;;;;;9.00;2.25;;;23.10;52.70;;;;;;4978063;28;88568;-60
2023/12/26 11:07:21;;;;;;;9.73;2.67;;;23.10;52.80;;;;;;4979495;28;88027;-60
2023/12/26 11:09:47;;;;;;;5.95;2.33;;;23.10;52.90;;;;;;4979002;28;86887;-60
2023/12/26 11:12:13;;;;;;;5.68;2.35;;;23.10;52.60;;;;;;4975048;28;88148;-60
2023/12/26 11:14:39;;;;;;;5.63;2.47;;;23.10;52.70;;;;;;4968347;28;90536;-60
2023/12/26 11:17:07;;;;;;;9.68;2.95;;;23.10;52.80;;;;;;4971752;28;88372;-60
2023/12/26 11:19:33;;;;;;;8.57;3.03;;;23.00;52.60;;;;;;4975138;28;88477;-60
2023/12/26 11:22:01;;;;;;;7.55;2.42;;;23.10;52.60;;;;;;4988431;28;88212;-60
2023/12/26 11:24:27;;;;;;;5.47;2.25;;;23.10;53.10;;;;;;4975989;28;87551;-60
2023/12/26 11:26:53;;;;;;;9.13;2.47;;;23.10;52.70;;;;;;4977466;28;88144;-60
2023/12/26 11:29:19;;;;;;;9.23;2.80;;;23.10;52.80;;;;;;4973751;28;87547;-60
2023/12/26 11:31:46;;;;;;;6.78;2.35;;;23.10;52.60;;;;;;4972678;28;90411;-60
2023/12/26 11:34:14;;;;;;;9.57;2.90;;;23.10;52.60;;;;;;4974340;28;87276;-60
2023/12/26 11:36:43;;;;;;;8.53;2.83;;;23.10;52.60;;;;;;4994626;28;87501;-61
2023/12/26 11:39:09;;;;;;;7.25;2.58;;;23.10;52.60;;;;;;4973861;28;87942;-61
2023/12/26 11:41:36;;;;;;;8.23;3.25;;;23.10;52.50;;;;;;4979383;28;89255;-61
2023/12/26 11:44:03;;;;;;;6.88;2.15;;;23.10;52.20;;;;;;4989223;28;90192;-62
2023/12/26 11:46:29;;;;;;;6.30;2.30;;;23.10;52.40;;;;;;4989689;28;87090;-61
2023/12/26 11:48:55;;;;;;;8.70;2.53;;;23.10;52.20;;;;;;4974709;28;88325;-60
2023/12/26 11:51:20;;;;;;;7.72;2.53;;;23.10;52.00;;;;;;4974888;28;88296;-61
2023/12/26 11:53:46;;;;;;;5.18;2.40;;;23.10;52.40;;;;;;4991178;28;88616;-61
2023/12/26 11:56:12;;;;;;;7.13;2.50;;;23.10;52.10;;;;;;4974523;28;87723;-61
2023/12/26 11:58:38;;;;;;;6.50;2.08;;;23.20;52.20;;;;;;4969798;28;88562;-60
2023/12/26 12:01:03;;;;;;;6.10;1.98;;;23.10;52.40;;;;;;4971643;28;87923;-60
2023/12/26 12:03:29;;;;;;;4.07;1.95;;;23.10;52.20;;;;;;4977416;28;87961;-60
2023/12/26 12:06:14;;;;;;;10.98;3.33;;;23.10;51.90;;;;;;4973270;28;88600;-60
2023/12/26 12:09:05;;;;;;;12.77;4.07;;;23.20;51.50;;;;;;4972946;28;87840;-60
2023/12/26 12:11:32;;;;;;;12.13;2.63;;;23.10;51.40;;;;;;4967993;28;88764;-60
2023/12/26 12:13:58;;;;;;;11.10;3.30;;;23.10;51.80;;;;;;4966293;28;88533;-61
2023/12/26 12:16:24;;;;;;;9.35;3.22;;;23.10;51.40;;;;;;4971150;28;87340;-60
2023/12/26 12:19:02;;;;;;;12.55;3.13;;;23.20;51.50;;;;;;4972995;28;87957;-59
2023/12/26 12:21:38;;;;;;;12.38;3.42;;;23.20;51.50;;;;;;4969506;28;88709;-60
2023/12/26 12:24:04;;;;;;;8.77;2.92;;;23.20;51.30;;;;;;4970401;28;88546;-60
2023/12/26 12:27:05;;;;;;;9.63;3.55;;;23.20;51.80;;;;;;4975589;28;87652;-60
2023/12/26 12:29:57;;;;;;;10.02;3.97;;;23.20;51.70;;;;;;4969052;28;88391;-60
2023/12/26 12:32:30;;;;;;;13.55;3.88;;;23.10;51.90;;;;;;4973184;28;89384;-60
2023/12/26 12:35:16;;;;;;;8.43;2.63;;;23.20;51.80;;;;;;4972456;28;89461;-60
2023/12/26 12:37:43;;;;;;;9.40;2.80;;;23.20;51.90;;;;;;4993275;28;87367;-60
2023/12/26 12:40:09;;;;;;;13.50;3.10;;;23.20;51.90;;;;;;4975029;28;88084;-60
2023/12/26 12:42:39;;;;;;;10.27;3.40;;;23.20;51.90;;;;;;4977047;28;88179;-60
2023/12/26 12:45:05;;;;;;;9.82;3.20;;;23.20;52.30;;;;;;4976552;28;87844;-60
2023/12/26 12:47:32;;;;;;;13.13;3.15;;;23.20;52.00;;;;;;4974425;28;87624;-60